Home > Products > Valid Products > MTR

000
SAUS46 KSGX 272253
MTRCZZ
METAR KCZZ 272252Z AUTO 08012KT 26/M09 A3007 RMK AO1 SLP152
T02611089 $





000
SAUS46 KSGX 272252
MTRSAN
METAR KSAN 272251Z 28003KT 10SM SCT250 28/M02 A3001 RMK AO2 SLP162
T02781022 $





000
SAUS46 KSGX 272153
MTRCZZ
METAR KCZZ 272152Z AUTO 07012KT 27/M09 A3007 RMK AO1 SLP154
T02721094 $





000
SAUS46 KSGX 272152
MTRSAN
METAR KSAN 272151Z 31005KT 10SM SCT250 29/M06 A3001 RMK AO2 SLP162
T02891061 $





000
SAUS46 KSGX 272053
MTRCZZ
METAR KCZZ 272052Z AUTO 06014KT 27/M09 A3009 RMK AO1 SLP159
T02721094 58022 $





000
SAUS46 KSGX 272052
MTRSAN
METAR KSAN 272051Z 31008KT 10SM FEW250 29/M06 A3003 RMK AO2 SLP168
T02891056 57025 $





000
SAUS46 KSGX 271953
MTRCZZ
METAR KCZZ 271952Z AUTO 08017KT 27/M09 A3011 RMK AO1 SLP163
T02721094 $





000
SAUS46 KSGX 271952
MTRSAN
METAR KSAN 271951Z 30006KT 10SM FEW250 29/M06 A3005 RMK AO2 SLP176
T02891061 $





000
SAUS46 KSGX 271853
MTRCZZ
METAR KCZZ 271852Z AUTO 07019KT 27/M09 A3014 RMK AO1 SLP175
T02671094 $





000
SAUS46 KSGX 271852
MTRSAN
METAR KSAN 271851Z 00000KT 10SM FEW250 28/M02 A3008 RMK AO2 SLP185
T02831022 $





000
SAUS46 KSGX 271753
MTRCZZ
METAR KCZZ 271752Z AUTO 07016KT 26/M09 A3016 RMK AO1 SLP185
T02561094 10256 20100 58006 $





000
SAUS46 KSGX 271752
MTRSAN
METAR KSAN 271751Z 00000KT 10SM FEW250 26/M02 A3010 RMK AO2 SLP193
T02561017 10256 20128 50004 $





000
SAUS46 KSGX 271653
MTRCZZ
METAR KCZZ 271652Z AUTO 05011G19KT 24/M09 A3017 RMK AO1 SLP189
T02441089 $





000
SAUS46 KSGX 271652
MTRSAN
METAR KSAN 271651Z 00000KT 10SM FEW250 21/03 A3011 RMK AO2 SLP195
T02110033 $





000
SAUS46 KSGX 271553
MTRCZZ
METAR KCZZ 271552Z AUTO 08004KT 21/M09 A3017 RMK AO1 SLP189
T02111089 $





000
SAUS46 KSGX 271552
MTRSAN
METAR KSAN 271551Z 00000KT 10SM FEW250 17/M02 A3010 RMK AO2 SLP193
T01721022 $





000
SAUS46 KSGX 271453
MTRCZZ
METAR KCZZ 271452Z AUTO 00000KT 11/M08 A3018 RMK AO1 SLP201
T01111083 51006 $





000
SAUS46 KSGX 271452
MTRSAN
METAR KSAN 271451Z 00000KT 10SM FEW250 14/M03 A3009 RMK AO2 SLP189
T01441028 53001 $





000
SAUS46 KSGX 271353
MTRCZZ
METAR KCZZ 271352Z AUTO 08003KT 15/M08 A3017 RMK AO1 SLP195
T01501083 $





000
SAUS46 KSGX 271352
MTRSAN
METAR KSAN 271351Z 00000KT 10SM CLR 13/M01 A3009 RMK AO2 SLP188
T01331011 $





000
SAUS46 KSGX 271253
MTRCZZ
METAR KCZZ 271252Z AUTO 08004KT 11/M08 A3017 RMK AO1 SLP192
T01111083 $





000
SAUS46 KSGX 271252
MTRSAN
METAR KSAN 271251Z 00000KT 10SM CLR 13/M01 A3008 RMK AO2 SLP185
T01331006 $





000
SAUS46 KSGX 271153
MTRCZZ
METAR KCZZ 271152Z AUTO VRB03KT 17/M08 A3016 RMK AO1 SLP184
T01671083 10194 20122 58007 $





000
SAUS46 KSGX 271152
MTRSAN
METAR KSAN 271151Z 00000KT 10SM CLR 14/M01 A3009 RMK AO2 SLP189
T01391011 10183 20133 56007 $





000
SAUS46 KSGX 271053
MTRCZZ
METAR KCZZ 271052Z AUTO 06005KT 17/M08 A3017 RMK AO1 SLP187
T01671083 $





000
SAUS46 KSGX 271052
MTRSAN
METAR KSAN 271051Z 00000KT 10SM CLR 14/M01 A3009 RMK AO2 SLP190
T01441006 $





000
SAUS46 KSGX 270953
MTRCZZ
METAR KCZZ 270952Z AUTO 00000KT 13/M08 A3018 RMK AO1 SLP191
T01331083 $





000
SAUS46 KSGX 270953
MTRCZZ
METAR KCZZ 270952Z AUTO 00000KT 13/M08 A3018 RMK AO1 SLP191
T01331083 $





000
SAUS46 KSGX 270952
MTRSAN
METAR KSAN 270951Z 27003KT 10SM CLR 14/01 A3011 RMK AO2 SLP194
T01390006 $





000
SAUS46 KSGX 270853
MTRCZZ
METAR KCZZ 270852Z AUTO 06005KT 15/M09 A3018 RMK AO1 SLP191
T01501089 58005 $





000
SAUS46 KSGX 270852
MTRSAN
METAR KSAN 270851Z 00000KT 10SM CLR 15/01 A3011 RMK AO2 SLP196
T01500011 58006 $





000
SAUS46 KSGX 270753
MTRCZZ
METAR KCZZ 270752Z AUTO 00000KT 19/M09 A3019 RMK AO1 SLP191
T01941089 402500056 $





000
SAUS46 KSGX 270752
MTRSAN
METAR KSAN 270751Z 00000KT 10SM CLR 16/01 A3012 RMK AO2 SLP198
T01610011 402720111 $





000
SAUS46 KSGX 270653
MTRCZZ
METAR KCZZ 270652Z AUTO 00000KT 18/M09 A3019 RMK AO1 SLP194
T01781089





000
SAUS46 KSGX 270652
MTRSAN
METAR KSAN 270651Z 36004KT 10SM CLR 17/02 A3013 RMK AO2 SLP202
T01670017 $





000
SAUS46 KSGX 270553
MTRCZZ
METAR KCZZ 270552Z AUTO 00000KT 13/M09 A3020 RMK AO1 SLP198
T01331089 10233 20111 55000





000
SAUS46 KSGX 270552
MTRSAN
METAR KSAN 270551Z 00000KT 10SM CLR 18/01 A3013 RMK AO2 SLP202
T01830011 10272 20178 50001 $





000
SAUS46 KSGX 270453
MTRCZZ
METAR KCZZ 270452Z AUTO 23004KT 14/M08 A3019 RMK AO1 SLP197
T01391083





000
SAUS46 KSGX 270453
MTRCZZ
METAR KCZZ 270452Z AUTO 23004KT 14/M08 A3019 RMK AO1 SLP197
T01391083





000
SAUS46 KSGX 270452
MTRSAN
METAR KSAN 270451Z 36003KT 10SM CLR 19/03 A3013 RMK AO2 SLP202
T01890028 $





000
SAUS46 KSGX 270452
MTRSAN
METAR KSAN 270451Z 36003KT 10SM CLR 19/03 A3013 RMK AO2 SLP202
T01890028 $





000
SAUS46 KSGX 270353
MTRCZZ
METAR KCZZ 270352Z AUTO 00000KT 17/M09 A3020 RMK AO1 SLP199
T01721094





000
SAUS46 KSGX 270353
MTRCZZ
METAR KCZZ 270352Z AUTO 00000KT 17/M09 A3020 RMK AO1 SLP199
T01721094





000
SAUS46 KSGX 270352
MTRSAN
METAR KSAN 270351Z 00000KT 10SM CLR 20/09 A3013 RMK AO2 SLP202
T02000094 $





000
SAUS46 KSGX 270352
MTRSAN
METAR KSAN 270351Z 00000KT 10SM CLR 20/09 A3013 RMK AO2 SLP202
T02000094 $





000
SAUS46 KSGX 270253
MTRCZZ
METAR KCZZ 270252Z AUTO 07006KT 15/M09 A3020 RMK AO1 SLP207
T01501094 50001





000
SAUS46 KSGX 270252
MTRSAN
METAR KSAN 270251Z 00000KT 10SM CLR 22/M01 A3013 RMK AO2 SLP201
T02171011 53003 $





000
SAUS46 KSGX 270153
MTRCZZ
METAR KCZZ 270152Z AUTO 07011KT 17/M09 A3020 RMK AO1 SLP204
T01721094





000
SAUS46 KSGX 270152
MTRSAN
METAR KSAN 270151Z 32003KT 10SM CLR 23/M02 A3012 RMK AO2 SLP199
T02281017 $





000
SAUS46 KSGX 270053
MTRCZZ
METAR KCZZ 270052Z AUTO 05011KT 21/M09 A3019 RMK AO1 SLP199
T02111089





000
SAUS46 KSGX 270052
MTRSAN
METAR KSAN 270051Z 01004KT 10SM CLR 26/M08 A3012 RMK AO2 SLP198
T02611078





000
SAUS46 KSGX 262353
MTRCZZ
METAR KCZZ 262352Z AUTO 05015G24KT 23/M09 A3019 RMK AO1 SLP201
T02331089 10250 20233 56004





000
SAUS46 KSGX 262352
MTRSAN
METAR KSAN 262351Z 31004KT 10SM CLR 27/M04 A3012 RMK AO2 SLP198
T02671039 10267 20239 56009





000
SAUS46 KSGX 262253
MTRCZZ
METAR KCZZ 262252Z AUTO 05017G22KT 24/M09 A3020 RMK AO1 SLP200
T02441089





000
SAUS46 KSGX 262252
MTRSAN
METAR KSAN 262251Z 30004KT 10SM CLR 25/02 A3013 RMK AO2 SLP202
T02500022





000
SAUS46 KSGX 262153
MTRCZZ
METAR KCZZ 262152Z AUTO 04020G25KT 24/M09 A3020 RMK AO1 PK WND
04026/2140 SLP199 T02441094





000
SAUS46 KSGX 262153
MTRCZZ
METAR KCZZ 262152Z AUTO 04020G25KT 24/M09 A3020 RMK AO1 PK WND
04026/2140 SLP199 T02441094





000
SAUS46 KSGX 262152
MTRSAN
METAR KSAN 262151Z 32007KT 10SM CLR 25/00 A3013 RMK AO2 SLP203
T02500000





000
SAUS46 KSGX 262152
MTRSAN
METAR KSAN 262151Z 32007KT 10SM CLR 25/00 A3013 RMK AO2 SLP203
T02500000





000
SAUS46 KSGX 262053
MTRCZZ
METAR KCZZ 262052Z AUTO 06018G26KT 25/M09 A3021 RMK AO1 PK WND
05027/2020 SLP203 T02501089 58019





000
SAUS46 KSGX 262052
MTRSAN
METAR KSAN 262051Z 30006KT 10SM CLR 26/M03 A3014 RMK AO2 SLP207
T02611033 58029





000
SAUS46 KSGX 261953
MTRCZZ
METAR KCZZ 261952Z AUTO 06018G25KT 24/M09 A3022 RMK AO1 PK WND
05026/1940 SLP214 T02441089





000
SAUS46 KSGX 261952
MTRSAN
METAR KSAN 261951Z 34005KT 10SM CLR 25/M03 A3017 RMK AO2 SLP217
T02501028





000
SAUS46 KSGX 261853
MTRCZZ
METAR KCZZ 261852Z AUTO 03014G23KT 24/M09 A3025 RMK AO1 SLP222
T02441094





000
SAUS46 KSGX 261852
MTRSAN
METAR KSAN 261851Z 31005KT 10SM CLR 24/01 A3021 RMK AO2 SLP228
T02390006





000
SAUS46 KSGX 261753
MTRCZZ
METAR KCZZ 261752Z AUTO 05010G23KT 24/M10 A3027 RMK AO1 SLP229
T02391100 10239 20100 50004





000
SAUS46 KSGX 261752
MTRSAN
METAR KSAN 261751Z 00000KT 10SM CLR 25/M08 A3023 RMK AO2 SLP237
T02501078 10250 20111 50004





000
SAUS46 KSGX 261653
MTRCZZ
METAR KCZZ 261652Z AUTO 05010G15KT 22/M12 A3027 RMK AO1 SLP231
T02221117





000
SAUS46 KSGX 261652
MTRSAN
METAR KSAN 261651Z 00000KT 10SM CLR 20/M03 A3023 RMK AO2 SLP237
T02001028





000
SAUS46 KSGX 261553
MTRCZZ
METAR KCZZ 261552Z AUTO 00000KT 19/M12 A3026 RMK AO1 SLP230
T01941117





000
SAUS46 KSGX 261552
MTRSAN
METAR KSAN 261551Z 00000KT 10SM CLR 16/M03 A3023 RMK AO2 SLP237
T01611033





000
SAUS46 KSGX 261453
MTRCZZ
METAR KCZZ 261452Z AUTO 02006KT 13/M12 A3026 RMK AO1 SLP231
T01281117 53003





000
SAUS46 KSGX 261452
MTRSAN
METAR KSAN 261451Z 35004KT 10SM CLR 13/M04 A3022 RMK AO2 SLP233
T01331039 56001





000
SAUS46 KSGX 261353
MTRCZZ
METAR KCZZ 261352Z AUTO 08014KT 15/M13 A3025 RMK AO1 SLP225
T01501133





000
SAUS46 KSGX 261352
MTRSAN
METAR KSAN 261351Z 00000KT 10SM CLR 12/M03 A3022 RMK AO2 SLP234
T01171028





000
SAUS46 KSGX 261253
MTRCZZ
METAR KCZZ 261252Z AUTO 08012KT 14/M13 A3024 RMK AO1 SLP221
T01391133





000
SAUS46 KSGX 261252
MTRSAN
METAR KSAN 261251Z 00000KT 10SM CLR 12/M03 A3022 RMK AO2 SLP233
T01221028





000
SAUS46 KSGX 261153
MTRCZZ
METAR KCZZ 261152Z AUTO 08014KT 10/M14 A3025 RMK AO1 SLP223
T01001139 10128 20044 58010





000
SAUS46 KSGX 261152
MTRSAN
METAR KSAN 261151Z 00000KT 10SM CLR 12/M02 A3022 RMK AO2 SLP234
T01221022 10167 20122 56012





000
SAUS46 KSGX 261053
MTRCZZ
METAR KCZZ 261052Z AUTO 09011KT 11/M14 A3027 RMK AO1 SLP228
T01061139





000
SAUS46 KSGX 261052
MTRSAN
METAR KSAN 261051Z 00000KT 10SM CLR 13/M03 A3023 RMK AO2 SLP237
T01331033





000
SAUS46 KSGX 260953
MTRCZZ
METAR KCZZ 260952Z AUTO VRB03KT 12/M14 A3028 RMK AO1 SLP231
T01171139





000
SAUS46 KSGX 260953
MTRCZZ
METAR KCZZ 260952Z AUTO VRB03KT 12/M14 A3028 RMK AO1 SLP231
T01171139





000
SAUS46 KSGX 260952
MTRSAN
METAR KSAN 260951Z 00000KT 10SM CLR 13/M02 A3025 RMK AO2 SLP242
T01331022





000
SAUS46 KSGX 260952
MTRSAN
METAR KSAN 260951Z 00000KT 10SM CLR 13/M02 A3025 RMK AO2 SLP242
T01331022





000
SAUS46 KSGX 260853
MTRCZZ
METAR KCZZ 260852Z AUTO 32004KT 11/M12 A3028 RMK AO1 SLP232
T01111122 58008





000
SAUS46 KSGX 260852
MTRSAN
METAR KSAN 260851Z 00000KT 10SM CLR 15/M04 A3026 RMK AO2 SLP246
T01501044 58010





000
SAUS46 KSGX 260753
MTRCZZ
METAR KCZZ 260752Z AUTO 00000KT 07/M14 A3030 RMK AO1 SLP242
T00671139 402060044





000
SAUS46 KSGX 260752
MTRSAN
METAR KSAN 260751Z 00000KT 10SM CLR 15/M01 A3027 RMK AO2 SLP250
T01501011 402500100





000
SAUS46 KSGX 260653
MTRCZZ
METAR KCZZ 260652Z AUTO 35004KT 07/M16 A3031 RMK AO1 SLP246
T00721156





000
SAUS46 KSGX 260652
MTRSAN
METAR KSAN 260651Z 00000KT 10SM CLR 16/M03 A3029 RMK AO2 SLP255
T01611033





000
SAUS46 KSGX 260553
MTRCZZ
METAR KCZZ 260552Z AUTO 07007KT 07/M19 A3031 RMK AO1 SLP247
T00721189 10183 20050 58002





000
SAUS46 KSGX 260552
MTRSAN
METAR KSAN 260551Z 00000KT 10SM CLR 17/M02 A3029 RMK AO2 SLP256
T01671022 10244 20161 50002





000
SAUS46 KSGX 260454
MTRCZZ
METAR KCZZ 260452Z AUTO 02004KT 06/M16 A3032 RMK AO1 SLP251
T00611156





000
SAUS46 KSGX 260452
MTRSAN
METAR KSAN 260451Z 00000KT 10SM CLR 17/M02 A3029 RMK AO2 SLP256
T01721017





000
SAUS46 KSGX 260353
MTRCZZ
METAR KCZZ 260352Z AUTO 03004KT 08/M18 A3032 RMK AO1 SLP252
T00831183





000
SAUS46 KSGX 260353
MTRCZZ
METAR KCZZ 260352Z AUTO 03004KT 08/M18 A3032 RMK AO1 SLP252
T00831183





000
SAUS46 KSGX 260352
MTRSAN
METAR KSAN 260351Z 36004KT 10SM CLR 20/M03 A3029 RMK AO2 SLP255
T02001028





000
SAUS46 KSGX 260352
MTRSAN
METAR KSAN 260351Z 36004KT 10SM CLR 20/M03 A3029 RMK AO2 SLP255
T02001028





000
SAUS46 KSGX 260253
MTRCZZ
METAR KCZZ 260252Z AUTO 05005KT 09/M17 A3032 RMK AO1 SLP251
T00891167 53010





000
SAUS46 KSGX 260252
MTRSAN
METAR KSAN 260251Z 35003KT 10SM CLR 20/M01 A3028 RMK AO2 SLP254
T02001006 53008





000
SAUS46 KSGX 260153
MTRCZZ
METAR KCZZ 260152Z AUTO 02004KT 11/M16 A3031 RMK AO1 SLP248
T01111161





000
SAUS46 KSGX 260152
MTRSAN
METAR KSAN 260151Z VRB03KT 10SM CLR 21/M05 A3028 RMK AO2 SLP252
T02061050





000
SAUS46 KSGX 260053
MTRCZZ
METAR KCZZ 260052Z AUTO 07010KT 16/M17 A3028 RMK AO1 SLP235
T01561167





000
SAUS46 KSGX 260052
MTRSAN
METAR KSAN 260051Z 34005KT 10SM CLR 22/M08 A3026 RMK AO2 SLP247
T02221083





000
SAUS46 KSGX 252353
MTRCZZ
METAR KCZZ 252352Z AUTO 08013KT 18/M17 A3028 RMK AO1 SLP233
T01831172 10206 20178 55006





000
SAUS46 KSGX 252352
MTRSAN
METAR KSAN 252351Z 31003KT 10SM CLR 24/M10 A3026 RMK AO2 SLP246
T02441100 10250 20233 56008





000
SAUS46 KSGX 252253
MTRCZZ
METAR KCZZ 252252Z AUTO 08016KT 20/M18 A3028 RMK AO1 SLP231
T02001183





000
SAUS46 KSGX 252252
MTRSAN
METAR KSAN 252251Z 33009KT 10SM CLR 25/M07 A3026 RMK AO2 SLP247
T02501072





000
SAUS46 KSGX 252153
MTRCZZ
METAR KCZZ 252152Z AUTO 07015KT 21/M17 A3028 RMK AO1 SLP229
T02061172





000
SAUS46 KSGX 252153
MTRCZZ
METAR KCZZ 252152Z AUTO 07015KT 21/M17 A3028 RMK AO1 SLP229
T02061172





000
SAUS46 KSGX 252152
MTRSAN
METAR KSAN 252151Z 31007KT 10SM CLR 24/M11 A3027 RMK AO2 SLP248
T02441111





000
SAUS46 KSGX 252152
MTRSAN
METAR KSAN 252151Z 31007KT 10SM CLR 24/M11 A3027 RMK AO2 SLP248
T02441111





000
SAUS46 KSGX 252053
MTRCZZ
METAR KCZZ 252052Z AUTO 07014KT 20/M16 A3030 RMK AO1 SLP238
T02001161 56024





000
SAUS46 KSGX 252052
MTRSAN
METAR KSAN 252051Z 29008KT 10SM CLR 24/M13 A3029 RMK AO2 SLP255
T02441133 58029





000
SAUS46 KSGX 251953
MTRCZZ
METAR KCZZ 251952Z AUTO 08020KT 19/M15 A3032 RMK AO1 PK WND
06026/1855 SLP245 T01941150





000
SAUS46 KSGX 251952
MTRSAN
METAR KSAN 251951Z 33008KT 10SM CLR 24/M13 A3032 RMK AO2 SLP265
T02391128





000
SAUS46 KSGX 251853
MTRCZZ
METAR KCZZ 251852Z AUTO 07022KT 18/M15 A3036 RMK AO1 PK WND
07029/1821 SLP259 T01831150





000
SAUS46 KSGX 251852
MTRSAN
METAR KSAN 251851Z 30006KT 10SM CLR 24/M10 A3035 RMK AO2 SLP278
T02391100





000
SAUS46 KSGX 251753
MTRSAN
METAR KSAN 251751Z 00000KT 10SM CLR 23/M12 A3037 RMK AO2 SLP284
T02331117 10233 20100 50005





000
SAUS46 KSGX 251753
MTRCZZ
METAR KCZZ 251752Z AUTO 07020G25KT 18/M15 A3038 RMK AO1 SLP266
T01781150 10178 20122 50001





000
SAUS46 KSGX 251653
MTRCZZ
METAR KCZZ 251652Z AUTO 05013G21KT 17/M15 A3039 RMK AO1 SLP272
T01671150





000
SAUS46 KSGX 251653
MTRCZZ
METAR KCZZ 251652Z AUTO 05013G21KT 17/M15 A3039 RMK AO1 SLP272
T01671150





000
SAUS46 KSGX 251652
MTRSAN
METAR KSAN 251651Z 00000KT 10SM CLR 19/M08 A3038 RMK AO2 SLP285
T01941083 $





000
SAUS46 KSGX 251652
MTRSAN
METAR KSAN 251651Z 00000KT 10SM CLR 19/M08 A3038 RMK AO2 SLP285
T01941083 $





000
SAUS46 KSGX 251553
MTRCZZ
METAR KCZZ 251552Z AUTO 05010G17KT 15/M13 A3039 RMK AO1 SLP272
T01501133





000
SAUS46 KSGX 251552
MTRSAN
METAR KSAN 251551Z 00000KT 10SM CLR 14/M04 A3037 RMK AO2 SLP283
T01391044





000
SAUS46 KSGX 251453
MTRCZZ
METAR KCZZ 251452Z AUTO 04012G18KT 13/M14 A3038 RMK AO1 SLP271
T01331139 51016





000
SAUS46 KSGX 251452
MTRSAN
METAR KSAN 251451Z 35003KT 10SM CLR 12/M06 A3036 RMK AO2 SLP279
T01171061 52014





000
SAUS46 KSGX 251353
MTRCZZ
METAR KCZZ 251352Z AUTO VRB03KT 12/M14 A3038 RMK AO1 PK WND
07031/1300 SLP269 T01221139





000
SAUS46 KSGX 251352
MTRSAN
METAR KSAN 251351Z 00000KT 10SM CLR 11/M04 A3034 RMK AO2 SLP275
T01111044





000
SAUS46 KSGX 251253
MTRCZZ
METAR KCZZ 251252Z AUTO 06015G25KT 14/M14 A3033 RMK AO1 PK WND
05028/1241 SLP253 T01391144





000
SAUS46 KSGX 251252
MTRSAN
METAR KSAN 251251Z 00000KT 10SM CLR 12/M03 A3033 RMK AO2 SLP269
T01171033





000
SAUS46 KSGX 251153
MTRCZZ
METAR KCZZ 251152Z AUTO 05016G24KT 13/M14 A3033 RMK AO1 PK WND
04029/1121 SLP250 T01331144 10150 20133 55001





000
SAUS46 KSGX 251152
MTRSAN
METAR KSAN 251151Z 00000KT 10SM CLR 12/00 A3031 RMK AO2 SLP265
T01170000 10172 20117 56001





000
SAUS46 KSGX 251053
MTRCZZ
METAR KCZZ 251052Z AUTO 05017G27KT 13/M14 A3032 RMK AO1 PK WND
04030/1025 SLP248 T01331144





000
SAUS46 KSGX 251053
MTRCZZ
METAR KCZZ 251052Z AUTO 05017G27KT 13/M14 A3032 RMK AO1 PK WND
04030/1025 SLP248 T01331144





000
SAUS46 KSGX 251052
MTRSAN
METAR KSAN 251051Z 00000KT 10SM CLR 14/M01 A3032 RMK AO2 SLP265
T01441006





000
SAUS46 KSGX 251052
MTRSAN
METAR KSAN 251051Z 00000KT 10SM CLR 14/M01 A3032 RMK AO2 SLP265
T01441006





000
SAUS46 KSGX 250953
MTRCZZ
METAR KCZZ 250952Z AUTO 04021G28KT 14/M14 A3032 RMK AO1 PK WND
04028/0950 SLP245 T01391144





000
SAUS46 KSGX 250952
MTRSAN
METAR KSAN 250951Z 34004KT 10SM CLR 13/M04 A3031 RMK AO2 SLP264
T01281039





000
SAUS46 KSGX 250853
MTRCZZ
METAR KCZZ 250852Z AUTO 05009G18KT 14/M14 A3033 RMK AO1 PK WND
02032/0819 SLP249 T01391144 53018





000
SAUS46 KSGX 250852
MTRSAN
METAR KSAN 250851Z 00000KT 10SM CLR 14/M05 A3032 RMK AO2 SLP266
T01391050 51012





000
SAUS46 KSGX 250753
MTRCZZ
METAR KCZZ 250752Z AUTO 05020G41KT 15/M15 A3027 RMK AO1 PK WND
06041/0743 SLP227 T01501150 401940056





000
SAUS46 KSGX 250752
MTRSAN
METAR KSAN 250751Z 00000KT 10SM CLR 16/M04 A3030 RMK AO2 SLP261
T01561044 402500106





000
SAUS46 KSGX 250653
MTRCZZ
METAR KCZZ 250652Z AUTO 05021G29KT 14/M12 A3027 RMK AO1 PK WND
03032/0637 SLP229 T01391122





000
SAUS46 KSGX 250652
MTRSAN
METAR KSAN 250651Z 00000KT 10SM CLR 15/M03 A3030 RMK AO2 SLP259
T01501028





000
SAUS46 KSGX 250553
MTRCZZ
METAR KCZZ 250552Z AUTO 05019G27KT 14/M12 A3027 RMK AO1 PK WND
04027/0550 SLP231 T01391122 10167 20117 50009





000
SAUS46 KSGX 250552
MTRSAN
METAR KSAN 250551Z 00000KT 10SM CLR 17/M06 A3028 RMK AO2 SLP254
T01671061 10239 20161 53014





000
SAUS46 KSGX 250453
MTRCZZ
METAR KCZZ 250452Z AUTO 02009KT 13/M13 A3028 RMK AO1 SLP233
T01331128





000
SAUS46 KSGX 250452
MTRSAN
METAR KSAN 250451Z 17004KT 10SM CLR 19/02 A3027 RMK AO2 SLP251
T01890022





000
SAUS46 KSGX 250353
MTRCZZ
METAR KCZZ 250352Z AUTO 03010KT 12/M13 A3026 RMK AO1 SLP229
T01221128





000
SAUS46 KSGX 250352
MTRSAN
METAR KSAN 250351Z 00000KT 10SM CLR 19/M06 A3024 RMK AO2 SLP240
T01891061





000
SAUS46 KSGX 250253
MTRCZZ
METAR KCZZ 250252Z AUTO 04012KT 12/M13 A3025 RMK AO1 SLP229
T01171128 53010





000
SAUS46 KSGX 250252
MTRSAN
METAR KSAN 250251Z 35003KT 10SM CLR 19/M04 A3024 RMK AO2 SLP240
T01941039 53019





000
SAUS46 KSGX 250153
MTRCZZ
METAR KCZZ 250152Z AUTO 05012G17KT 14/M13 A3024 RMK AO1 PK WND
05028/0055 SLP225 T01391128





000
SAUS46 KSGX 250152
MTRSAN
METAR KSAN 250151Z 05006KT 10SM CLR 22/M04 A3022 RMK AO2 SLP233
T02171044





000
SAUS46 KSGX 250053
MTRCZZ
METAR KCZZ 250052Z AUTO 05018G26KT 15/M13 A3022 RMK AO1 PK WND
06026/0007 SLP217 T01501128





000
SAUS46 KSGX 250052
MTRSAN
METAR KSAN 250051Z 01006KT 10SM FEW250 22/M02 A3020 RMK AO2 SLP227
T02171017





000
SAUS46 KSGX 242353
MTRCZZ
METAR KCZZ 242352Z AUTO 04018G27KT 17/M13 A3021 RMK AO1 PK WND
05031/2321 SLP215 T01671128 10194 20167 53005





000
SAUS46 KSGX 242352
MTRSAN
METAR KSAN 242351Z 35007KT 10SM FEW250 24/M06 A3019 RMK AO2 SLP221
T02391061 10250 20211 53005





    US Dept of Commerce
    National Oceanic and Atmospheric Administration
    National Weather Service
    1325 East West Highway
    Silver Spring, MD 20910
    Page Author: NWS Internet Services Team
Disclaimer
Information Quality
Credits
Glossary
Privacy Policy
Freedom of Information Act (FOIA)
About Us
Career Opportunities